Latest Weather Observations for Holsworthy

IDN60801

Issued at 9:12 am EST Tuesday 26 May 2020 (issued every 10 minutes, with the page automatically refreshed every 10 minutes)

About weather observations | Map of weather stations | Latest weather observations for NSW | Other Formats
Station Details ID: 066161 Name: HOLSWORTHY AERODROME AWS Lat: -33.99 Lon: 150.95 Height: 68.16 m
Data from the previous 72 hours. | See also: Recent months at Holsworthy
Date/Time
EST
Temp
°C
App
Temp
°C
Dew
Point
°C
Rel
Hum
%
Delta-T
°C
Wind Press
QNH
hPa
Press
MSL
hPa
Rain since
9am
mm
Dir  Spd
km/h
Gust
km/h
Spd
kts
Gust
kts
26/09:00am 15.1 13.8 13.6 91 0.8 SW 13 17 7 9 1023.0 1023.0 2.0
26/08:56am 15.3 14.2 14.2 93 0.6 SW 13 17 7 9 1022.9 1022.9 2.0
26/08:42am 14.2 13.1 13.2 94 0.6 SW 11 17 6 9 1022.7 1022.7 2.0
26/08:30am 13.7 12.9 12.9 95 0.4 WSW 9 15 5 8 1022.6 1022.6 2.0
26/08:00am 13.0 11.9 12.1 94 0.5 WSW 9 13 5 7 1022.5 1022.5 2.0
26/07:30am 12.7 11.6 11.8 94 0.5 SW 9 13 5 7 1022.3 1022.3 2.0
26/07:00am 12.6 11.4 11.5 93 0.6 SW 9 15 5 8 1022.1 1022.1 2.0
26/06:30am 12.6 10.6 11.5 93 0.6 SW 13 17 7 9 1021.7 1021.6 2.0
26/06:00am 12.6 10.6 11.5 93 0.6 SW 13 19 7 10 1021.5 1021.4 2.0
26/05:30am 12.7 10.6 11.3 91 0.7 SW 13 22 7 12 1021.5 1021.4 2.0
26/05:00am 12.7 10.7 11.4 92 0.7 SW 13 20 7 11 1021.1 1021.0 2.0
26/04:30am 12.6 10.1 11.2 91 0.7 SW 15 20 8 11 1021.0 1020.9 1.8
26/04:15am 12.8 10.8 11.4 91 0.7 SW 13 19 7 10 1020.8 1020.7 1.8
26/04:05am 13.0 11.0 11.6 91 0.7 SW 13 19 7 10 1020.9 1020.8 1.8
26/04:00am 13.1 11.1 11.5 90 0.8 SW 13 19 7 10 1020.9 1020.8 1.8
26/03:30am 12.9 10.8 11.3 90 0.8 SW 13 17 7 9 1021.0 1020.9 1.6
26/03:00am 12.8 10.7 11.2 90 0.8 SW 13 19 7 10 1020.8 1020.7 1.6
26/02:30am 13.0 11.0 11.6 91 0.7 SW 13 19 7 10 1021.1 1021.0 1.6
26/02:00am 13.7 11.3 11.4 86 1.2 SW 15 22 8 12 1021.1 1021.0 1.6
26/01:30am 13.2 11.1 11.1 87 1.1 SSW 13 20 7 11 1021.1 1021.0 1.6
26/01:00am 13.0 11.3 11.1 88 1.0 SW 11 20 6 11 1021.1 1021.0 1.6
26/12:30am 13.0 11.4 11.4 90 0.8 SW 11 17 6 9 1021.3 1021.2 1.6
26/12:00am 13.4 11.1 11.6 89 1.0 SSW 15 26 8 14 1021.3 1021.2 1.6
 
Date/Time
EST
Temp
°C
App
Temp
°C
Dew
Point
°C
Rel
Hum
%
Delta-T
°C
Wind Press
QNH
hPa
Press
MSL
hPa
Rain since
9am
mm
Dir  Spd
km/h
Gust
km/h
Spd
kts
Gust
kts
25/11:30pm 13.6 10.3 11.5 87 1.1 SSW 20 32 11 17 1021.1 1021.0 1.6
25/11:00pm 13.3 11.8 11.9 91 0.7 SW 11 24 6 13 1021.1 1021.0 1.4
25/10:30pm 13.4 11.2 12.0 91 0.8 SSW 15 24 8 13 1021.0 1020.9 1.2
25/10:00pm 13.7 10.5 11.8 88 1.0 SSW 20 33 11 18 1020.7 1020.6 1.2
25/09:30pm 13.7 11.1 12.1 90 0.9 SW 17 26 9 14 1020.6 1020.5 1.2
25/09:00pm 13.7 10.7 11.9 89 1.0 SSW 19 28 10 15 1020.4 1020.3 0.8
25/08:30pm 14.3 11.0 11.6 84 1.5 SSW 20 32 11 17 1020.0 1019.9 0.2
25/08:00pm 14.3 11.0 11.5 83 1.5 SSW 20 32 11 17 1019.8 1019.7 0.0
25/07:30pm 14.5 11.1 11.3 81 1.7 SSW 20 37 11 20 1019.5 1019.4 0.0
25/07:00pm 14.4 11.2 11.2 81 1.7 SSW 19 32 10 17 1019.3 1019.2 0.0
25/06:30pm 14.9 10.6 10.9 77 2.1 SSW 24 39 13 21 1019.1 1019.0 0.0
25/06:00pm 14.7 10.4 10.9 78 2.0 SSW 24 39 13 21 1018.8 1018.7 0.0
25/05:30pm 15.1 11.2 10.9 76 2.2 SSW 22 37 12 20 1018.5 1018.4 0.0
25/05:00pm 15.0 11.1 10.8 76 2.2 SSW 22 39 12 21 1018.3 1018.2 0.0
25/04:30pm 15.6 12.0 10.4 71 2.7 SSW 20 39 11 21 1018.0 1017.9 0.0
25/04:13pm 15.8 10.6 10.1 69 3.0 SSW 28 48 15 26 1017.8 1017.7 0.0
25/04:00pm 15.8 11.3 10.1 69 3.0 SSW 24 43 13 23 1017.7 1017.6 0.0
25/03:30pm 15.8 12.1 10.1 69 3.0 SW 20 37 11 20 1017.7 1017.6 0.0
25/03:00pm 16.0 12.3 10.3 69 3.0 SW 20 39 11 21 1017.3 1017.2 0.0
25/02:30pm 16.2 11.6 9.8 66 3.4 SW 24 35 13 19 1017.2 1017.1 0.0
25/02:00pm 16.2 11.6 9.8 66 3.3 SW 24 33 13 18 1017.3 1017.2 0.0
25/01:30pm 16.6 12.1 10.2 66 3.4 SW 24 39 13 21 1017.2 1017.1 0.0
25/01:00pm 17.0 12.2 10.4 65 3.5 SSW 26 43 14 23 1017.0 1016.9 0.0
25/12:30pm 16.6 11.3 9.8 64 3.6 SSW 28 48 15 26 1017.2 1017.1 0.0
25/12:00pm 16.6 11.3 10.0 65 3.5 SSW 28 46 15 25 1017.3 1017.2 0.0
25/11:30am 16.3 11.1 10.2 67 3.2 SSW 28 46 15 25 1017.4 1017.3 0.0
25/11:13am 16.1 10.8 9.8 66 3.3 SSW 28 52 15 28 1017.6 1017.5 0.0
25/11:00am 15.8 10.9 9.9 68 3.1 SSW 26 41 14 22 1017.6 1017.5 0.0
25/10:30am 15.5 11.3 9.6 68 3.1 SW 22 35 12 19 1017.9 1017.8 0.0
25/10:00am 15.0 11.2 9.8 71 2.7 SW 20 37 11 20 1018.0 1017.9 0.0
25/09:30am 14.7 10.7 9.1 69 2.9 SW 20 35 11 19 1017.9 1017.8 0.0
25/09:00am 13.9 10.4 8.9 72 2.5 SW 17 22 9 12 1017.8 1017.7 0.0
25/08:30am 13.4 10.2 8.5 72 2.5 WSW 15 24 8 13 1017.6 1017.5 0.0
25/08:00am 12.7 10.2 8.0 73 2.3 WSW 11 17 6 9 1017.4 1017.3 0.0
25/07:30am 12.2 9.6 7.9 75 2.1 WSW 11 17 6 9 1017.3 1017.2 0.0
25/07:00am 11.3 9.0 7.6 78 1.8 WSW 9 13 5 7 1017.1 1017.0 0.0
25/06:30am 10.8 8.8 6.9 77 1.9 WSW 7 11 4 6 1016.7 1016.6 0.0
25/06:00am 10.5 8.4 6.8 78 1.7 WSW 7 11 4 6 1016.4 1016.3 0.0
25/05:30am 10.2 8.1 6.7 79 1.6 WSW 7 9 4 5 1016.1 1016.0 0.0
25/05:00am 9.8 7.7 6.5 80 1.5 WSW 7 11 4 6 1016.0 1015.9 0.0
25/04:30am 10.3 7.8 6.6 78 1.7 WSW 9 13 5 7 1015.6 1015.5 0.0
25/04:00am 10.6 8.1 6.6 76 1.9 WSW 9 15 5 8 1015.7 1015.6 0.0
25/03:30am 10.7 8.2 6.6 76 1.9 WSW 9 13 5 7 1015.5 1015.4 0.0
25/03:00am 10.7 8.2 6.6 76 1.9 WSW 9 15 5 8 1015.7 1015.6 0.0
25/02:30am 10.9 8.9 6.1 72 2.2 SW 6 9 3 5 1015.9 1015.8 0.0
25/02:00am 11.3 9.2 6.0 70 2.5 SW 6 9 3 5 1016.0 1015.9 0.0
25/01:30am 11.5 9.3 6.2 70 2.5 WSW 7 11 4 6 1016.0 1015.9 0.0
25/01:00am 11.3 9.0 5.8 69 2.6 WSW 7 9 4 5 1016.0 1015.9 0.0
25/12:30am 11.8 9.2 6.1 68 2.7 SSW 9 13 5 7 1016.1 1016.0 0.0
25/12:00am 11.4 9.2 6.1 70 2.5 SW 7 11 4 6 1016.2 1016.1 0.0
 
Date/Time
EST
Temp
°C
App
Temp
°C
Dew
Point
°C
Rel
Hum
%
Delta-T
°C
Wind Press
QNH
hPa
Press
MSL
hPa
Rain since
9am
mm
Dir  Spd
km/h
Gust
km/h
Spd
kts
Gust
kts
24/11:30pm 11.4 9.2 6.1 70 2.5 WSW 7 11 4 6 1016.0 1015.9 0.0
24/11:00pm 11.6 9.0 6.3 70 2.5 SW 9 11 5 6 1016.2 1016.1 0.0
24/10:30pm 11.7 9.2 6.4 70 2.5 SW 9 13 5 7 1016.2 1016.1 0.0
24/10:00pm 12.0 9.1 6.3 68 2.7 SW 11 15 6 8 1016.0 1015.9 0.0
24/09:30pm 12.0 9.3 5.4 64 3.1 SW 9 13 5 7 1016.0 1015.9 0.0
24/09:00pm 12.1 9.0 5.5 64 3.1 SW 11 17 6 9 1016.0 1015.9 0.0
24/08:30pm 12.1 9.3 5.0 62 3.3 WSW 9 13 5 7 1015.7 1015.6 0.0
24/08:00pm 12.5 9.7 5.2 61 3.4 WSW 9 15 5 8 1015.6 1015.5 0.0
24/07:30pm 12.7 9.5 5.1 60 3.5 WSW 11 15 6 8 1015.4 1015.3 0.0
24/07:00pm 13.3 10.8 5.0 57 3.9 WSW 7 11 4 6 1015.3 1015.2 0.0
24/06:30pm 14.3 10.4 5.4 55 4.2 SW 15 26 8 14 1015.0 1014.9 0.0
24/06:00pm 15.0 10.4 5.5 53 4.5 SW 19 32 10 17 1014.8 1014.7 0.0
24/05:30pm 15.1 10.2 5.3 52 4.7 SSW 20 33 11 18 1014.5 1014.4 0.0
24/05:00pm 15.2 11.5 6.5 56 4.2 SW 15 28 8 15 1013.8 1013.8 0.0
24/04:30pm 15.8 11.2 6.5 54 4.6 SSW 20 33 11 18 1013.1 1013.1 0.0
24/04:00pm 16.3 10.7 7.0 54 4.6 SSW 26 43 14 23 1012.8 1012.8 0.0
24/03:30pm 16.9 12.7 7.5 54 4.7 SSW 19 30 10 16 1012.6 1012.6 0.0
24/03:00pm 16.9 12.1 7.5 54 4.7 SSW 22 39 12 21 1012.4 1012.4 0.0
24/02:30pm 16.9 10.5 7.0 52 4.9 SSW 30 48 16 26 1012.2 1012.2 0.0
24/02:16pm 17.0 11.2 7.9 55 4.6 SSW 28 46 15 25 1012.1 1012.1 0.0
24/02:00pm 16.9 11.5 7.8 55 4.6 SSW 26 41 14 22 1012.0 1012.0 0.0
24/01:34pm 17.1 11.3 8.0 55 4.6 SSW 28 48 15 26 1012.0 1012.0 0.0
24/01:30pm 17.2 12.1 7.8 54 4.8 SSW 24 44 13 24 1011.9 1011.9 0.0
24/01:00pm 17.5 13.0 8.4 55 4.7 SSW 22 39 12 21 1011.9 1011.9 0.0
24/12:34pm 16.9 11.2 8.3 57 4.4 SSW 28 52 15 28 1012.1 1012.1 0.0
24/12:30pm 17.1 11.9 8.8 58 4.3 SSW 26 52 14 28 1012.1 1012.1 0.0
24/12:28pm 16.9 11.2 8.3 57 4.4 SSW 28 52 15 28 1012.0 1012.0 0.0
24/12:00pm 16.9 12.4 8.6 58 4.3 SSW 22 35 12 19 1012.3 1012.3 0.0
24/11:30am 16.6 10.6 8.8 60 4.0 SSW 30 52 16 28 1012.6 1012.6 0.0
24/11:01am 16.4 10.8 8.6 60 4.0 SSW 28 52 15 28 1012.5 1012.5 0.0
24/11:00am 16.4 11.2 8.9 61 3.9 SSW 26 48 14 26 1012.6 1012.6 0.0
24/10:53am 16.4 10.7 8.4 59 4.1 SSW 28 48 15 26 1012.6 1012.6 0.0
24/10:30am 16.3 11.5 9.0 62 3.8 SSW 24 46 13 25 1012.6 1012.6 0.0
24/10:00am 16.4 12.0 8.9 61 3.9 SSW 22 37 12 20 1012.6 1012.6 0.0
24/09:30am 16.7 11.9 8.9 60 4.0 SSW 24 43 13 23 1012.4 1012.4 0.0
24/09:00am 14.7 12.0 7.5 62 3.6 W 11 15 6 8 1012.0 1012.0 0.2
24/08:30am 13.7 10.5 7.0 64 3.3 WSW 13 19 7 10 1011.8 1011.8 0.2
24/08:00am 13.1 10.3 7.1 67 2.9 WSW 11 17 6 9 1011.7 1011.7 0.2
24/07:30am 12.7 10.3 7.0 68 2.8 WSW 9 13 5 7 1011.4 1011.4 0.2
24/07:00am 12.3 10.2 6.8 69 2.6 WSW 7 11 4 6 1011.0 1011.0 0.2
24/06:30am 12.7 10.3 7.0 68 2.8 WSW 9 13 5 7 1010.6 1010.6 0.2
24/06:00am 12.7 9.9 7.0 68 2.8 WSW 11 15 6 8 1010.2 1010.2 0.2
24/05:30am 12.5 10.5 7.0 69 2.7 WSW 7 11 4 6 1009.8 1009.8 0.2
24/05:00am 12.4 10.4 6.9 69 2.7 WSW 7 9 4 5 1009.6 1009.6 0.2
24/04:30am 12.5 10.4 6.8 68 2.7 WSW 7 9 4 5 1009.3 1009.2 0.2
24/04:00am 12.9 10.5 6.9 67 2.9 W 9 13 5 7 1009.3 1009.2 0.2
24/03:30am 13.1 9.9 6.9 66 3.0 WSW 13 20 7 11 1009.2 1009.1 0.2
24/03:00am 13.2 9.7 7.0 66 3.0 WSW 15 20 8 11 1009.4 1009.3 0.2
24/02:30am 13.0 9.8 7.0 67 2.9 WSW 13 20 7 11 1009.4 1009.3 0.2
24/02:00am 13.3 9.7 6.9 65 3.1 WSW 15 24 8 13 1009.5 1009.5 0.2
24/01:30am 13.6 9.7 6.9 64 3.3 SW 17 26 9 14 1009.3 1009.2 0.2
24/01:00am 13.6 10.1 7.2 65 3.1 WSW 15 24 8 13 1009.4 1009.3 0.2
24/12:30am 13.5 10.0 7.3 66 3.0 WSW 15 26 8 14 1009.3 1009.2 0.2
24/12:00am 13.5 10.1 7.5 67 3.0 WSW 15 22 8 12 1009.3 1009.2 0.2
 
Date/Time
EST
Temp
°C
App
Temp
°C
Dew
Point
°C
Rel
Hum
%
Delta-T
°C
Wind Press
QNH
hPa
Press
MSL
hPa
Rain since
9am
mm
Dir  Spd
km/h
Gust
km/h
Spd
kts
Gust
kts
23/11:30pm 13.3 10.3 7.5 68 2.8 WSW 13 22 7 12 1009.1 1009.0 0.2
23/11:00pm 13.5 9.7 7.5 67 3.0 WSW 17 26 9 14 1009.2 1009.1 0.2
23/10:30pm 13.6 9.8 7.6 67 3.0 WSW 17 28 9 15 1009.2 1009.1 0.2
23/10:00pm 13.4 10.3 7.4 67 2.9 WSW 13 19 7 10 1009.3 1009.2 0.2
23/09:30pm 13.7 10.3 7.5 66 3.1 WSW 15 24 8 13 1009.2 1009.1 0.2
23/09:00pm 13.9 10.4 7.4 65 3.2 WSW 15 20 8 11 1009.1 1009.0 0.2
23/08:30pm 14.0 10.6 7.5 65 3.2 SW 15 30 8 16 1008.8 1008.7 0.2
23/08:00pm 14.1 10.3 7.4 64 3.3 SW 17 28 9 15 1008.6 1008.5 0.2
23/07:30pm 14.4 10.6 7.7 64 3.3 WSW 17 26 9 14 1008.4 1008.3 0.2
23/07:00pm 14.3 11.3 7.8 65 3.2 SW 13 17 7 9 1008.3 1008.2 0.2
23/06:30pm 14.2 11.7 8.2 67 3.0 WSW 11 15 6 8 1008.0 1007.9 0.2
23/06:00pm 14.0 11.5 8.2 68 2.9 WSW 11 17 6 9 1007.7 1007.6 0.2
23/05:30pm 13.8 11.4 8.8 72 2.5 WSW 11 17 6 9 1007.5 1007.4 0.2
23/05:00pm 13.8 11.5 9.0 73 2.4 W 11 15 6 8 1007.4 1007.3 0.2
23/04:30pm 13.9 11.2 8.9 72 2.5 W 13 19 7 10 1007.5 1007.4 0.2
23/04:00pm 14.3 10.8 8.9 70 2.8 WSW 17 24 9 13 1007.3 1007.2 0.2
23/03:30pm 14.4 10.6 9.0 70 2.8 WSW 19 26 10 14 1007.4 1007.3 0.2
23/03:00pm 13.8 11.4 10.2 79 1.9 WSW 13 20 7 11 1007.3 1007.2 0.2
23/02:30pm 14.4 10.6 9.8 74 2.4 WSW 20 32 11 17 1007.3 1007.2 0.2
23/02:00pm 15.3 10.4 8.3 63 3.6 WSW 24 35 13 19 1007.3 1007.2 0.0
23/01:30pm 15.4 11.2 8.2 62 3.6 WSW 20 35 11 19 1007.3 1007.2 0.0
23/01:00pm 15.6 11.1 8.6 63 3.6 WSW 22 35 12 19 1007.3 1007.2 0.0
23/12:30pm 14.9 12.0 9.7 71 2.7 SW 15 24 8 13 1007.5 1007.4 0.0
23/12:00pm 15.5 11.4 8.7 64 3.5 WSW 20 35 11 19 1007.8 1007.7 0.0
23/11:30am 16.2 11.6 8.2 59 4.1 WSW 22 33 12 18 1007.8 1007.7 0.0
23/11:00am 16.8 12.6 8.2 57 4.4 SW 20 32 11 17 1007.7 1007.6 0.0
23/10:30am 16.7 12.6 7.9 56 4.5 WSW 19 28 10 15 1007.7 1007.6 0.0
23/10:00am 16.0 11.1 7.0 55 4.5 WSW 22 35 12 19 1007.8 1007.7 0.0
23/09:30am 15.9 11.4 7.1 56 4.4 W 20 32 11 17 1007.6 1007.5 0.0

Other formats

Comma delimited format used in spreadsheet applications
http://www.bom.gov.au/fwo/IDN60801/IDN60801.95761.axf

JavaScript Object Notation format (JSON) in row-major order
http://www.bom.gov.au/fwo/IDN60801/IDN60801.95761.json

Data quality

Most of these data are generated automatically and are frequently updated. Quality checks on data are not normally performed. It is possible for incorrect values to appear. Refer to information at About Latest Weather Observations and please check the disclaimer before using these data.